Kezdőlap
METAR-TAF:

METAR-TAF

Repülőterek :

Csita, Oroszország

földrajzi szélesség: 52-05N, földrajzi hosszúság: 113-29E, magasság: 685 m

Jelenlegi meteorológiai megfigyelések

A jelentés 24 perccel ezelõtt készült, 00:00 UTC
Különbözõ irányokból fújó szél 2 kt
Hőmérséklet 15°C
Páratartalom 63%
Légköri nyomás 1013 hPa
Látótávolság 10 km, vagy több

METAR: UIAA 230000Z VRB01MPS 9999 NSC 15/08 Q1013 R29/CLRD70 NOSIG RMK QFE701/0935

Idő: 09:24 (00:24 UTC)

Előrejelzés

A jelentés 1 órával és 24 perccel ezelõtt készült, 23:00 UTC
Az előrejelzés 23-én 00 óra UTC és 23-én 24 óra UTC között érvényes
Nyugat-délnyugati szél 6 kt széllökések: 16 kt
Látótávolság 10 km, vagy több
Szórványos felhőzet 4000 lábon, Cumulonimbus.

TAF: UIAA 222300Z 2300/2324 24003G08MPS 9999 SCT040CB

Meteorológiai megfigyelések és előrejelzések több, mint 4000 repülőtéren (METAR és TAF jelentéseket).

A térképen piros és sárga pontok jelzik az elérhető meteorológiai állomásokat.

Mozgassa az egeret a pont fölött, hogy megjelenjen az állomás neve.

Azután kattintson az időjárási megfigyelések és előrejelzések megtekintéséhez.

A térkép megváltoztatása: kattintson a fekete keresztel jelölt zöld gombra ráközelítéshez, a vonallal jelölt zöld gombra távolításhoz, vagy a zöld nyilakra a szomszédos térképek eléréséhez.


METAR-TAF: